Time;durP1;ratioP1;P1;durP2;ratioP2;P2;SDS_P1;SDS_P2;PMS_P1;PMS_P2;Temp;Humidity;BMP_temperature;BMP_pressure;BME280_temperature;BME280_humidity;BME280_pressure;Samples;Min_cycle;Max_cycle;Signal;HPM_P1;HPM_P2
2021/12/19 00:00:32;;;;;;;40.00;18.45;;;;;;;5.23;100.00;103339.25;5005657;28;20582;-72
2021/12/19 00:10:53;;;;;;;40.75;17.25;;;;;;;5.30;100.00;103337.31;5006302;28;20030;-72
2021/12/19 00:13:19;;;;;;;40.63;18.02;;;;;;;5.38;100.00;103335.25;5006617;28;20033;-71
2021/12/19 00:15:44;;;;;;;38.78;17.70;;;;;;;5.32;100.00;103326.97;5011674;28;20034;-72
2021/12/19 00:18:10;;;;;;;45.90;19.20;;;;;;;5.28;100.00;103326.25;5006598;28;20092;-72
2021/12/19 00:20:36;;;;;;;44.80;17.27;;;;;;;5.29;100.00;103325.31;5010514;28;20041;-72
2021/12/19 00:23:02;;;;;;;40.05;17.85;;;;;;;5.34;100.00;103318.28;5008679;28;20369;-72
2021/12/19 00:25:27;;;;;;;37.70;16.60;;;;;;;5.34;100.00;103317.44;5008431;28;20095;-71
2021/12/19 00:27:53;;;;;;;46.30;19.13;;;;;;;5.30;100.00;103313.31;4992742;28;20037;-71
2021/12/19 00:30:19;;;;;;;38.05;17.23;;;;;;;5.28;100.00;103315.13;4995485;28;20084;-72
2021/12/19 00:32:45;;;;;;;43.15;18.75;;;;;;;5.23;100.00;103308.41;5006002;28;20034;-71
2021/12/19 00:35:10;;;;;;;42.90;17.48;;;;;;;5.26;100.00;103310.03;4993604;28;20057;-71
2021/12/19 00:37:36;;;;;;;40.20;17.00;;;;;;;5.33;100.00;103306.31;5012849;28;20040;-72
2021/12/19 00:40:03;;;;;;;40.08;17.08;;;;;;;5.34;100.00;103307.97;5016433;28;20447;-72
2021/12/19 00:42:34;;;;;;;45.10;17.58;;;;;;;5.30;100.00;103303.03;5009156;28;20116;-72
2021/12/19 00:45:05;;;;;;;36.22;16.25;;;;;;;5.26;100.00;103304.88;5008970;28;20045;-71
2021/12/19 00:47:31;;;;;;;42.95;16.77;;;;;;;5.22;100.00;103314.44;5001312;28;20075;-72
2021/12/19 00:49:57;;;;;;;41.40;17.05;;;;;;;5.22;100.00;103316.19;5003036;28;20053;-72
2021/12/19 00:52:23;;;;;;;42.13;18.52;;;;;;;5.28;100.00;103315.94;5006085;28;20104;-72
2021/12/19 00:54:49;;;;;;;36.95;17.05;;;;;;;5.33;100.00;103308.03;5010184;28;20049;-72
2021/12/19 00:57:16;;;;;;;38.33;17.40;;;;;;;5.31;100.00;103308.09;5012568;28;20144;-71
2021/12/19 00:59:41;;;;;;;39.80;16.90;;;;;;;5.28;100.00;103308.22;5016268;28;20125;-72
2021/12/19 01:02:07;;;;;;;39.58;17.05;;;;;;;5.29;100.00;103302.16;5015897;28;20762;-72
2021/12/19 01:04:33;;;;;;;45.03;17.48;;;;;;;5.31;100.00;103302.13;5009214;28;20491;-72
2021/12/19 01:07:01;;;;;;;39.22;16.88;;;;;;;5.30;100.00;103295.31;5019942;28;20041;-71
2021/12/19 01:09:27;;;;;;;42.15;16.83;;;;;;;5.36;100.00;103295.88;5014663;28;20037;-72
2021/12/19 01:11:53;;;;;;;40.42;16.83;;;;;;;5.36;100.00;103300.22;5024039;28;20503;-71
2021/12/19 01:14:18;;;;;;;36.17;16.67;;;;;;;5.39;100.00;103293.19;5011988;28;20042;-71
2021/12/19 01:16:44;;;;;;;35.75;17.73;;;;;;;5.44;100.00;103293.00;5013142;28;20064;-71
2021/12/19 01:19:10;;;;;;;35.65;15.40;;;;;;;5.42;100.00;103294.81;5011911;28;20032;-71
2021/12/19 01:21:36;;;;;;;38.88;16.92;;;;;;;5.33;100.00;103290.88;5008220;28;20461;-72
2021/12/19 01:24:02;;;;;;;44.83;16.02;;;;;;;5.36;100.00;103280.44;5017742;28;20565;-71
2021/12/19 01:26:28;;;;;;;37.45;16.63;;;;;;;5.53;100.00;103279.78;5006092;28;20030;-71
2021/12/19 01:28:53;;;;;;;41.28;18.50;;;;;;;5.42;100.00;103266.50;5034234;22;20046;-81
2021/12/19 01:31:19;;;;;;;40.88;16.65;;;;;;;5.41;100.00;103277.72;4993668;28;20034;-80
2021/12/19 01:33:45;;;;;;;38.78;17.13;;;;;;;5.36;100.00;103272.72;5012817;28;20038;-81
2021/12/19 01:36:11;;;;;;;37.05;16.35;;;;;;;5.34;100.00;103271.13;4991942;28;20041;-81
2021/12/19 01:38:37;;;;;;;38.78;16.95;;;;;;;5.32;100.00;103278.06;4996622;28;20376;-81
2021/12/19 01:41:03;;;;;;;38.88;17.30;;;;;;;5.33;100.00;103275.44;5011821;28;20118;-81
2021/12/19 01:43:30;;;;;;;35.28;15.18;;;;;;;5.34;100.00;103277.09;4996688;28;20044;-80
2021/12/19 01:45:56;;;;;;;34.53;15.63;;;;;;;5.31;100.00;103271.25;5010259;28;20030;-81
2021/12/19 01:48:22;;;;;;;35.50;15.88;;;;;;;5.39;100.00;103269.22;5006875;28;20039;-81
2021/12/19 01:50:48;;;;;;;36.25;15.80;;;;;;;5.42;100.00;103266.50;4991159;28;20035;-81
2021/12/19 01:53:14;;;;;;;34.35;15.52;;;;;;;5.42;100.00;103267.31;4980704;28;20042;-81
2021/12/19 01:55:42;;;;;;;38.63;15.75;;;;;;;5.40;100.00;103256.25;5011065;28;20461;-81
2021/12/19 01:58:09;;;;;;;33.67;14.52;;;;;;;5.37;100.00;103255.53;4994084;28;20077;-81
2021/12/19 02:00:44;;;;;;;33.53;14.45;;;;;;;5.35;100.00;103254.78;4995749;28;20061;-81
2021/12/19 02:03:11;;;;;;;32.00;14.45;;;;;;;5.36;100.00;103261.59;4998506;28;20042;-80
2021/12/19 02:05:37;;;;;;;32.25;14.45;;;;;;;5.31;100.00;103260.94;4997947;28;20037;-81
2021/12/19 02:08:04;;;;;;;34.60;14.73;;;;;;;5.36;100.00;103244.44;4994446;28;20404;-81
2021/12/19 02:10:32;;;;;;;30.33;14.52;;;;;;;5.46;100.00;103243.16;5014445;28;20038;-81
2021/12/19 02:12:59;;;;;;;33.10;14.77;;;;;;;5.39;100.00;103248.63;5009413;28;20045;-81
2021/12/19 02:15:27;;;;;;;33.92;14.07;;;;;;;5.49;100.00;103251.66;4991679;28;20033;-81
2021/12/19 02:17:57;;;;;;;29.40;13.75;;;;;;;5.42;100.00;103251.88;5006773;28;20398;-81
2021/12/19 02:20:24;;;;;;;32.05;14.10;;;;;;;5.43;100.00;103248.44;4994110;28;20096;-81
2021/12/19 02:22:49;;;;;;;29.13;13.68;;;;;;;5.44;100.00;103249.25;5012226;28;20031;-81
2021/12/19 02:25:15;;;;;;;29.60;12.88;;;;;;;5.33;100.00;103236.84;5009732;28;20030;-81
2021/12/19 02:27:42;;;;;;;34.42;14.65;;;;;;;5.41;100.00;103247.66;5013429;28;20026;-79
2021/12/19 02:30:09;;;;;;;35.00;14.32;;;;;;;5.31;100.00;103242.94;4997797;28;20563;-81
2021/12/19 02:32:37;;;;;;;33.03;13.82;;;;;;;5.29;100.00;103247.31;5005719;28;20034;-81
2021/12/19 02:35:10;;;;;;;39.88;16.13;;;;;;;5.36;100.00;103241.03;4984394;28;20030;-81
2021/12/19 02:50:56;;;;;;;31.30;14.40;;;;;;;5.47;100.00;103220.84;5005799;28;20108;-82
2021/12/19 02:53:37;;;;;;;35.65;14.27;;;;;;;5.39;100.00;103216.00;5016525;28;20034;-81
2021/12/19 02:56:06;;;;;;;36.42;14.43;;;;;;;5.56;100.00;103215.31;5020838;28;20519;-81
2021/12/19 02:58:33;;;;;;;33.25;14.10;;;;;;;5.46;100.00;103214.00;4999133;28;20035;-81
2021/12/19 03:01:01;;;;;;;41.88;16.38;;;;;;;5.47;100.00;103213.94;5011807;28;20035;-81
2021/12/19 03:03:27;;;;;;;36.03;16.40;;;;;;;5.58;100.00;103207.53;4998876;28;20386;-81
2021/12/19 03:05:52;;;;;;;30.42;13.48;;;;;;;5.55;100.00;103200.75;5011823;28;20030;-81
2021/12/19 03:08:18;;;;;;;32.67;13.57;;;;;;;5.47;100.00;103205.41;5011793;28;20451;-81
2021/12/19 03:19:03;;;;;;;39.45;16.20;;;;;;;5.41;100.00;103195.38;4996699;28;20057;-80
2021/12/19 03:21:28;;;;;;;37.95;15.30;;;;;;;5.47;100.00;103192.53;4992937;28;20022;-81
2021/12/19 03:23:54;;;;;;;39.50;15.65;;;;;;;5.46;100.00;103193.41;5011026;28;20077;-81
2021/12/19 03:26:21;;;;;;;39.80;17.00;;;;;;;5.49;100.00;103193.28;5014538;28;20504;-80
2021/12/19 03:28:46;;;;;;;37.00;16.42;;;;;;;5.43;100.00;103188.41;4995161;28;20034;-79
2021/12/19 03:31:12;;;;;;;36.30;14.30;;;;;;;5.49;100.00;103190.72;5010536;28;20048;-81
2021/12/19 03:33:38;;;;;;;34.78;14.50;;;;;;;5.44;100.00;103190.06;5011225;28;20038;-79
2021/12/19 03:36:07;;;;;;;35.65;14.40;;;;;;;5.46;100.00;103177.97;5009200;28;20064;-81
2021/12/19 03:38:39;;;;;;;33.90;14.77;;;;;;;5.42;100.00;103182.41;5012466;28;20048;-80
2021/12/19 03:41:18;;;;;;;45.40;14.73;;;;;;;5.44;100.00;103172.06;4997345;28;20050;-81
2021/12/19 03:43:43;;;;;;;38.05;15.15;;;;;;;5.46;100.00;103171.09;5008113;28;20439;-81
2021/12/19 03:46:09;;;;;;;31.55;14.93;;;;;;;5.52;100.00;103170.00;4999005;28;20026;-82
2021/12/19 03:48:34;;;;;;;33.40;14.02;;;;;;;5.44;100.00;103169.47;5008978;28;20515;-81
2021/12/19 03:51:00;;;;;;;28.98;13.77;;;;;;;5.55;100.00;103169.03;4994956;28;20045;-80
2021/12/19 03:53:25;;;;;;;31.80;13.80;;;;;;;5.45;100.00;103171.16;4999053;28;20041;-81
2021/12/19 03:55:51;;;;;;;24.33;12.38;;;;;;;5.59;100.00;103173.97;4999995;28;20096;-81
2021/12/19 03:58:18;;;;;;;24.70;11.65;;;;;;;5.63;100.00;103167.81;5007656;28;20496;-81
2021/12/19 04:00:46;;;;;;;28.75;12.43;;;;;;;5.58;100.00;103169.75;5019387;28;20214;-81
2021/12/19 04:03:17;;;;;;;24.73;11.38;;;;;;;5.48;100.00;103168.44;5008691;28;20041;-81
2021/12/19 04:05:45;;;;;;;25.92;11.30;;;;;;;5.45;100.00;103166.03;4999215;28;20065;-81
2021/12/19 04:08:10;;;;;;;28.65;12.35;;;;;;;5.42;100.00;103158.41;4993972;28;20377;-82
2021/12/19 04:10:36;;;;;;;29.65;11.63;;;;;;;5.36;100.00;103153.53;4982734;28;20097;-82
2021/12/19 04:13:04;;;;;;;25.50;11.05;;;;;;;5.46;100.00;103149.66;4991585;28;20030;-81
2021/12/19 04:15:30;;;;;;;27.02;11.05;;;;;;;5.44;100.00;103146.31;4996246;28;20038;-81
2021/12/19 04:17:55;;;;;;;26.67;10.82;;;;;;;5.46;100.00;103140.22;4989562;28;20485;-81
2021/12/19 04:20:21;;;;;;;27.75;11.15;;;;;;;5.38;100.00;103131.97;4994267;28;20381;-81
2021/12/19 04:22:49;;;;;;;31.50;11.55;;;;;;;5.35;100.00;103126.13;4990028;28;20444;-81
2021/12/19 04:25:15;;;;;;;28.35;10.88;;;;;;;5.34;100.00;103119.31;4997250;28;20034;-82
2021/12/19 04:27:42;;;;;;;32.63;12.32;;;;;;;5.43;100.00;103124.06;4967595;28;20035;-82
2021/12/19 04:30:11;;;;;;;31.02;11.68;;;;;;;5.42;100.00;103112.09;4995017;28;20411;-82
2021/12/19 04:32:42;;;;;;;30.83;12.25;;;;;;;5.32;100.00;103115.97;5004519;28;20076;-82
2021/12/19 04:35:10;;;;;;;26.35;11.45;;;;;;;5.38;100.00;103111.41;4972175;28;20095;-82
2021/12/19 04:40:28;;;;;;;32.75;12.35;;;;;;;5.49;100.00;103103.22;4991973;28;20042;-82
2021/12/19 05:04:05;;;;;;;33.38;12.88;;;;;;;5.44;100.00;103100.84;5017003;28;20033;-83
2021/12/19 05:14:38;;;;;;;33.95;12.95;;;;;;;5.47;100.00;103100.72;5006933;28;20038;-82
2021/12/19 05:17:08;;;;;;;34.85;13.23;;;;;;;5.52;100.00;103107.38;4997582;28;20125;-82
2021/12/19 05:19:52;;;;;;;40.30;12.85;;;;;;;5.42;100.00;103106.94;4971278;28;20037;-83
2021/12/19 05:22:19;;;;;;;34.03;12.25;;;;;;;5.47;100.00;103100.72;4989012;28;20110;-82
2021/12/19 05:25:00;;;;;;;35.60;12.00;;;;;;;5.42;100.00;103100.06;4978537;28;20033;-83
2021/12/19 05:27:26;;;;;;;34.63;13.02;;;;;;;5.43;100.00;103100.91;4997917;28;20038;-83
2021/12/19 05:29:51;;;;;;;36.42;12.93;;;;;;;5.52;100.00;103097.94;5004902;28;20042;-82
2021/12/19 05:32:17;;;;;;;30.42;11.90;;;;;;;5.46;100.00;103093.91;5006145;28;20034;-83
2021/12/19 05:34:42;;;;;;;36.47;11.75;;;;;;;5.46;100.00;103095.63;4987722;28;20033;-81
2021/12/19 05:45:20;;;;;;;36.10;12.88;;;;;;;5.52;100.00;103095.38;5008701;28;20035;-81
2021/12/19 05:47:51;;;;;;;38.72;13.48;;;;;;;5.42;100.00;103088.94;5006961;28;20042;-82
2021/12/19 05:50:19;;;;;;;39.08;14.02;;;;;;;5.52;100.00;103091.94;5002728;28;20072;-82
2021/12/19 05:52:47;;;;;;;41.35;13.73;;;;;;;5.45;100.00;103091.41;4991858;28;20035;-82
2021/12/19 05:55:14;;;;;;;35.70;13.15;;;;;;;5.50;100.00;103089.47;5013574;28;20061;-80
2021/12/19 05:57:39;;;;;;;39.90;14.30;;;;;;;5.45;100.00;103083.66;4990555;28;20039;-82
2021/12/19 06:00:09;;;;;;;39.95;13.10;;;;;;;5.49;100.00;103079.22;5018287;28;20133;-83
2021/12/19 06:02:35;;;;;;;35.10;12.60;;;;;;;5.35;100.00;103075.53;4991027;28;20038;-83
2021/12/19 06:05:01;;;;;;;39.47;13.00;;;;;;;5.43;100.00;103081.16;5018633;28;20044;-82
2021/12/19 06:07:26;;;;;;;47.38;13.57;;;;;;;5.37;100.00;103085.72;4992919;28;20092;-82
2021/12/19 06:09:52;;;;;;;36.20;13.23;;;;;;;5.31;100.00;103083.41;5003387;28;20042;-81
2021/12/19 06:12:17;;;;;;;38.83;11.75;;;;;;;5.28;100.00;103092.13;4996703;28;20044;-81
2021/12/19 06:14:43;;;;;;;37.45;12.15;;;;;;;5.33;100.00;103081.63;5003445;28;20038;-79
2021/12/19 06:17:08;;;;;;;32.25;10.23;;;;;;;5.14;100.00;103087.56;5015110;28;20463;-82
2021/12/19 06:19:36;;;;;;;27.38;9.52;;;;;;;5.03;100.00;103085.44;5018065;28;20034;-79
2021/12/19 06:22:03;;;;;;;22.52;8.57;;;;;;;5.07;100.00;103081.00;5014515;28;20093;-81
2021/12/19 06:24:29;;;;;;;20.98;7.65;;;;;;;5.06;100.00;103084.47;5001672;28;20038;-82
2021/12/19 06:26:55;;;;;;;17.15;7.50;;;;;;;4.94;100.00;103074.72;5002838;28;20042;-82
2021/12/19 06:29:20;;;;;;;18.88;7.05;;;;;;;4.98;100.00;103078.81;4973600;28;20476;-83
2021/12/19 06:31:46;;;;;;;15.07;6.13;;;;;;;5.08;99.73;103074.94;4977402;28;20564;-83
2021/12/19 06:34:11;;;;;;;14.85;5.47;;;;;;;5.04;99.03;103074.22;5015422;28;20058;-81
2021/12/19 06:36:37;;;;;;;14.48;5.60;;;;;;;5.01;99.11;103070.94;5008714;28;20019;-83
2021/12/19 06:39:03;;;;;;;14.40;5.00;;;;;;;4.99;99.19;103071.03;5015199;28;20030;-81
2021/12/19 06:41:29;;;;;;;13.27;5.03;;;;;;;4.95;99.61;103068.66;5006651;28;20049;-82
2021/12/19 06:43:55;;;;;;;8.93;3.88;;;;;;;4.95;99.53;103071.22;5014535;28;20157;-83
2021/12/19 06:46:20;;;;;;;8.05;3.95;;;;;;;4.94;99.55;103067.81;5011864;28;20030;-83
2021/12/19 06:48:46;;;;;;;11.32;4.63;;;;;;;5.03;99.09;103059.72;4994586;28;20034;-83
2021/12/19 06:51:11;;;;;;;11.02;4.38;;;;;;;5.00;98.86;103062.41;5014748;28;20026;-83
2021/12/19 06:53:36;;;;;;;14.50;5.20;;;;;;;4.89;99.13;103069.72;5008861;28;20026;-82
2021/12/19 06:56:02;;;;;;;11.25;5.30;;;;;;;4.97;99.13;103066.84;4985501;28;20038;-82
2021/12/19 06:58:28;;;;;;;12.75;5.15;;;;;;;4.89;99.54;103067.16;4996659;28;20048;-83
2021/12/19 07:00:53;;;;;;;13.90;5.45;;;;;;;4.91;99.42;103056.81;5023878;28;20045;-82
2021/12/19 07:03:23;;;;;;;14.52;5.75;;;;;;;4.95;99.88;103053.22;4991243;28;20026;-83
2021/12/19 07:05:49;;;;;;;11.52;5.05;;;;;;;4.98;99.67;103050.53;4971942;28;20548;-83
2021/12/19 07:08:15;;;;;;;16.83;6.25;;;;;;;5.00;99.64;103049.56;4993995;28;20103;-83
2021/12/19 07:10:41;;;;;;;18.98;6.65;;;;;;;4.97;99.60;103052.28;5008992;28;20408;-83
2021/12/19 07:13:06;;;;;;;17.58;6.63;;;;;;;4.97;99.55;103049.69;5018890;28;20038;-83
2021/12/19 07:15:32;;;;;;;18.30;6.05;;;;;;;4.88;99.93;103047.50;4993628;28;20046;-84
2021/12/19 07:18:02;;;;;;;19.10;6.75;;;;;;;4.79;100.00;103046.16;4999210;28;20049;-83
2021/12/19 07:20:28;;;;;;;19.02;6.65;;;;;;;4.77;100.00;103050.53;4996524;28;20069;-83
2021/12/19 07:22:54;;;;;;;19.98;7.03;;;;;;;4.77;100.00;103044.56;5005134;28;20038;-83
2021/12/19 07:25:19;;;;;;;28.05;8.43;;;;;;;4.85;100.00;103045.06;5010034;28;20030;-82
2021/12/19 07:27:45;;;;;;;28.50;8.70;;;;;;;4.90;100.00;103037.13;4990183;28;20531;-83
2021/12/19 07:30:11;;;;;;;30.92;9.55;;;;;;;4.82;100.00;103038.31;4987721;28;20037;-83
2021/12/19 07:32:38;;;;;;;32.55;13.82;;;;;;;4.85;100.00;103039.91;5008247;28;20034;-83
2021/12/19 07:35:07;;;;;;;28.30;10.35;;;;;;;4.88;100.00;103038.06;5002113;28;20496;-82
2021/12/19 07:37:32;;;;;;;31.77;10.05;;;;;;;4.92;100.00;103043.06;4968277;28;20366;-82
2021/12/19 07:40:10;;;;;;;26.75;9.60;;;;;;;4.92;100.00;103027.66;5002050;28;20049;-82
2021/12/19 07:42:35;;;;;;;30.48;10.57;;;;;;;4.88;100.00;103038.06;5009404;28;20060;-83
2021/12/19 07:45:01;;;;;;;31.15;10.48;;;;;;;4.82;100.00;103037.47;4991684;28;20034;-83
2021/12/19 07:47:26;;;;;;;32.50;11.15;;;;;;;4.86;100.00;103042.44;5010279;28;20037;-83
2021/12/19 07:49:52;;;;;;;29.98;11.15;;;;;;;4.94;100.00;103036.97;5019697;28;20501;-83
2021/12/19 07:52:17;;;;;;;27.90;10.32;;;;;;;4.94;100.00;103031.00;4991285;28;20053;-83
2021/12/19 07:54:44;;;;;;;28.55;11.05;;;;;;;4.95;100.00;103025.75;5015223;28;20032;-83
2021/12/19 07:57:10;;;;;;;35.08;13.00;;;;;;;4.92;100.00;103023.34;5008288;28;20491;-82
2021/12/19 07:59:35;;;;;;;26.65;10.52;;;;;;;4.94;100.00;103018.97;5017391;28;20030;-83
2021/12/19 08:02:02;;;;;;;35.92;11.77;;;;;;;5.02;100.00;103018.63;5001473;28;20563;-83
2021/12/19 08:04:28;;;;;;;29.70;10.80;;;;;;;5.09;100.00;103020.03;5004296;28;20501;-82
2021/12/19 08:06:53;;;;;;;28.33;10.75;;;;;;;5.12;100.00;103019.91;5004477;28;20049;-83
2021/12/19 08:09:36;;;;;;;25.73;10.00;;;;;;;5.12;100.00;103019.06;5006105;28;20030;-83
2021/12/19 08:12:03;;;;;;;;;;;;;;;5.11;100.00;103020.00;4990961;28;20054;-83
2021/12/19 08:14:28;;;;;;;28.58;9.45;;;;;;;5.03;100.00;103016.00;4996339;28;20118;-83
2021/12/19 08:16:54;;;;;;;27.42;9.48;;;;;;;5.04;100.00;103012.50;4986264;28;20027;-83
2021/12/19 08:19:19;;;;;;;25.27;10.00;;;;;;;4.96;100.00;103018.91;5001592;28;20097;-83
2021/12/19 08:21:45;;;;;;;30.70;10.15;;;;;;;4.95;100.00;103015.47;4993065;28;20500;-83
2021/12/19 08:24:12;;;;;;;24.55;9.50;;;;;;;5.05;100.00;103010.81;4994130;28;20044;-83
2021/12/19 08:26:39;;;;;;;26.52;10.20;;;;;;;5.09;100.00;103008.94;4972882;28;20097;-83
2021/12/19 08:29:04;;;;;;;28.27;9.13;;;;;;;5.04;100.00;103006.53;4995802;28;20042;-83
2021/12/19 08:31:30;;;;;;;22.77;7.68;;;;;;;5.01;100.00;103007.53;4988469;28;20044;-83
2021/12/19 08:33:56;;;;;;;20.48;8.05;;;;;;;5.06;100.00;103012.44;4988555;28;20245;-83
2021/12/19 08:36:21;;;;;;;19.05;7.68;;;;;;;4.99;100.00;103011.03;4986851;28;20034;-83
2021/12/19 08:38:47;;;;;;;22.42;7.60;;;;;;;5.00;100.00;103005.84;5017515;28;20047;-83
2021/12/19 08:41:13;;;;;;;28.13;9.50;;;;;;;5.13;100.00;103010.47;4990146;28;20065;-82
2021/12/19 08:43:39;;;;;;;122.22;39.47;;;;;;;5.07;100.00;103009.81;4990633;28;20465;-83
2021/12/19 08:46:08;;;;;;;163.23;49.53;;;;;;;5.15;100.00;103006.09;4979239;28;20088;-83
2021/12/19 08:48:34;;;;;;;149.05;47.40;;;;;;;5.08;100.00;103000.38;4970234;28;20022;-83
2021/12/19 08:51:00;;;;;;;300.35;97.18;;;;;;;5.14;100.00;102999.25;5006864;28;20038;-83
2021/12/19 08:53:26;;;;;;;222.77;79.75;;;;;;;5.17;100.00;102999.13;4981114;28;20052;-83
2021/12/19 08:55:51;;;;;;;77.95;32.30;;;;;;;5.20;100.00;102999.00;4994527;28;20045;-83
2021/12/19 08:58:17;;;;;;;82.22;35.95;;;;;;;5.22;100.00;102995.47;5007618;28;20030;-82
2021/12/19 09:00:42;;;;;;;69.68;32.38;;;;;;;5.25;100.00;103002.19;4995256;28;20046;-83
2021/12/19 09:03:09;;;;;;;32.50;16.65;;;;;;;5.14;100.00;102996.69;5007545;28;20038;-83
2021/12/19 09:05:35;;;;;;;49.80;22.95;;;;;;;5.18;100.00;103000.78;4999856;28;20089;-83
2021/12/19 09:08:01;;;;;;;19.30;9.70;;;;;;;5.23;100.00;102991.97;5005628;28;20127;-82
2021/12/19 09:10:27;;;;;;;19.23;10.60;;;;;;;5.23;100.00;102997.13;5009735;28;20505;-82
2021/12/19 09:12:53;;;;;;;17.67;9.55;;;;;;;5.24;100.00;102991.09;5008882;28;20524;-83
2021/12/19 09:15:19;;;;;;;16.38;10.27;;;;;;;5.29;100.00;103000.34;4987148;28;20069;-82
2021/12/19 09:17:45;;;;;;;12.95;6.97;;;;;;;5.30;100.00;102991.72;4986327;28;20484;-83
2021/12/19 09:20:11;;;;;;;10.25;6.28;;;;;;;5.39;100.00;102986.16;4985926;28;20030;-83
2021/12/19 09:22:37;;;;;;;17.30;7.85;;;;;;;5.50;100.00;102993.38;4999950;28;20030;-82
2021/12/19 09:25:03;;;;;;;14.70;6.38;;;;;;;5.44;100.00;102995.34;5000942;28;20044;-82
2021/12/19 09:27:29;;;;;;;17.25;6.85;;;;;;;5.41;100.00;102994.66;4983636;28;20033;-83
2021/12/19 09:29:54;;;;;;;12.77;6.50;;;;;;;5.43;100.00;102991.09;5001947;28;20053;-83
2021/12/19 09:32:20;;;;;;;11.65;6.85;;;;;;;5.35;100.00;102994.91;5004184;28;20027;-82
2021/12/19 09:34:46;;;;;;;10.68;6.10;;;;;;;5.47;100.00;102991.78;4983288;28;20550;-83
2021/12/19 09:37:12;;;;;;;13.30;6.65;;;;;;;5.58;100.00;102993.88;4971962;28;20038;-83
2021/12/19 09:39:39;;;;;;;15.85;7.28;;;;;;;5.49;100.00;102991.72;4985303;28;20045;-83
2021/12/19 09:42:09;;;;;;;12.50;5.55;;;;;;;5.61;100.00;102996.31;5001658;28;20549;-83
2021/12/19 09:44:39;;;;;;;12.45;6.80;;;;;;;5.61;100.00;102997.16;4976109;28;20088;-82
2021/12/19 09:47:07;;;;;;;11.52;5.90;;;;;;;5.53;100.00;102985.53;4972808;28;20512;-87
2021/12/19 09:49:34;;;;;;;14.55;7.65;;;;;;;5.47;100.00;102987.47;4999992;28;20044;-83
2021/12/19 09:52:05;;;;;;;15.82;7.72;;;;;;;5.56;100.00;102982.84;5007588;28;20034;-83
2021/12/19 09:54:31;;;;;;;13.68;6.38;;;;;;;5.52;100.00;102982.13;4997045;28;20045;-84
2021/12/19 09:56:57;;;;;;;18.08;7.40;;;;;;;5.65;100.00;102983.25;5001272;28;20389;-83
2021/12/19 09:59:23;;;;;;;15.00;6.57;;;;;;;5.65;100.00;102983.25;4977344;28;20034;-84
2021/12/19 10:01:51;;;;;;;10.57;5.72;;;;;;;5.70;100.00;102980.44;4967108;28;20101;-84
2021/12/19 10:04:30;;;;;;;12.20;6.47;;;;;;;5.69;100.00;102978.78;5009937;28;20113;-84
2021/12/19 10:07:03;;;;;;;13.82;5.68;;;;;;;5.66;100.00;102960.91;5007540;28;20034;-84
2021/12/19 10:09:29;;;;;;;12.65;5.97;;;;;;;5.79;100.00;102962.00;5011007;28;20121;-84
2021/12/19 10:14:46;;;;;;;15.10;5.80;;;;;;;5.71;100.00;102958.09;4988464;28;20100;-83
2021/12/19 10:17:17;;;;;;;15.07;5.68;;;;;;;5.79;100.00;102963.75;4970503;28;20042;-84
2021/12/19 10:19:46;;;;;;;11.68;5.53;;;;;;;5.80;100.00;102953.38;5004830;28;20038;-83
2021/12/19 10:22:38;;;;;;;25.25;12.50;;;;;;;5.87;100.00;102945.34;4992142;28;20065;-84
2021/12/19 10:25:17;;;;;;;14.27;5.85;;;;;;;5.83;100.00;102949.81;4993506;28;20493;-83
2021/12/19 10:27:50;;;;;;;21.67;9.48;;;;;;;5.79;100.00;102949.13;4983679;28;20042;-84
2021/12/19 10:30:22;;;;;;;15.27;6.22;;;;;;;5.95;100.00;102944.13;4980188;28;20038;-78
2021/12/19 10:33:00;;;;;;;17.63;7.38;;;;;;;5.89;100.00;102946.13;4978112;28;20038;-81
2021/12/19 10:35:28;;;;;;;15.25;6.72;;;;;;;5.83;100.00;102949.81;4991278;28;20080;-83
2021/12/19 10:37:54;;;;;;;18.75;5.72;;;;;;;5.91;100.00;102942.53;5006156;28;20228;-83
2021/12/19 10:40:20;;;;;;;11.70;5.22;;;;;;;5.97;100.00;102932.00;5005826;28;20038;-83
2021/12/19 10:42:57;;;;;;;14.10;5.93;;;;;;;5.85;100.00;102927.41;4988959;28;20511;-82
2021/12/19 10:45:29;;;;;;;14.10;5.47;;;;;;;5.92;100.00;102923.63;5005723;28;20576;-82
2021/12/19 10:48:21;;;;;;;10.87;4.57;;;;;;;5.98;100.00;102912.22;4989522;28;20030;-83
2021/12/19 10:50:47;;;;;;;18.60;8.35;;;;;;;5.95;100.00;102909.75;4985597;28;20045;-83
2021/12/19 10:53:15;;;;;;;17.15;7.18;;;;;;;5.96;100.00;102903.75;5008743;28;20117;-83
2021/12/19 10:55:43;;;;;;;14.75;5.57;;;;;;;6.07;100.00;102893.75;5001750;28;20046;-83
2021/12/19 10:58:28;;;;;;;18.00;7.15;;;;;;;6.03;100.00;102895.66;4991476;28;20077;-83
2021/12/19 11:01:03;;;;;;;19.25;7.88;;;;;;;5.99;100.00;102891.56;5009933;28;20034;-83
2021/12/19 11:03:38;;;;;;;14.55;6.22;;;;;;;6.07;100.00;102885.19;5012639;28;20042;-83
2021/12/19 11:06:27;;;;;;;16.50;6.95;;;;;;;6.03;100.00;102884.53;4989726;28;20031;-83
2021/12/19 11:08:53;;;;;;;20.42;10.90;;;;;;;5.99;100.00;102888.97;5013251;28;20042;-83
2021/12/19 11:11:41;;;;;;;14.73;5.50;;;;;;;6.16;100.00;102884.72;4991195;28;20045;-83
2021/12/19 11:14:09;;;;;;;19.30;9.23;;;;;;;6.12;100.00;102876.34;5008156;28;20038;-83
2021/12/19 11:16:35;;;;;;;13.48;6.20;;;;;;;6.13;100.00;102861.72;4996529;28;20064;-83
2021/12/19 11:19:02;;;;;;;12.13;5.45;;;;;;;6.08;100.00;102858.53;4988503;28;20500;-83
2021/12/19 11:21:33;;;;;;;12.70;5.75;;;;;;;6.01;100.00;102853.69;5004834;28;20501;-82
2021/12/19 11:23:59;;;;;;;11.40;5.50;;;;;;;6.07;100.00;102851.72;5015325;28;20366;-82
2021/12/19 11:26:27;;;;;;;17.60;5.75;;;;;;;5.98;100.00;102853.81;4989291;28;20034;-83
2021/12/19 11:28:55;;;;;;;14.05;5.55;;;;;;;6.00;100.00;102849.44;5005366;28;20036;-83
2021/12/19 11:31:21;;;;;;;15.80;6.63;;;;;;;5.96;100.00;102854.81;4993539;28;20125;-83
2021/12/19 11:34:07;;;;;;;25.73;9.48;;;;;;;6.11;100.00;102851.47;5001460;28;20121;-83
2021/12/19 11:36:37;;;;;;;10.35;5.03;;;;;;;6.16;100.00;102846.06;4995394;28;20038;-81
2021/12/19 11:39:05;;;;;;;10.88;4.68;;;;;;;6.04;100.00;102840.63;5004186;28;20575;-83
2021/12/19 11:41:31;;;;;;;10.93;4.85;;;;;;;6.02;100.00;102841.63;5003209;28;20485;-82
2021/12/19 11:44:01;;;;;;;10.68;4.97;;;;;;;6.11;100.00;102835.19;4999986;28;20045;-82
2021/12/19 11:46:54;;;;;;;5.95;3.35;;;;;;;6.09;99.95;102831.88;5000095;28;20035;-83
2021/12/19 11:49:25;;;;;;;8.25;4.15;;;;;;;6.07;99.91;102831.94;4991616;28;20053;-82
2021/12/19 11:52:22;;;;;;;8.27;3.50;;;;;;;6.12;99.71;102835.13;5010145;28;20033;-82
2021/12/19 11:55:13;;;;;;;7.88;3.38;;;;;;;6.19;98.95;102825.31;4988139;28;20042;-83
2021/12/19 11:57:38;;;;;;;10.95;4.28;;;;;;;5.99;99.19;102823.75;4988014;28;20046;-82
2021/12/19 12:00:31;;;;;;;11.05;4.43;;;;;;;6.10;99.37;102823.22;5003074;28;20041;-82
2021/12/19 12:03:11;;;;;;;9.23;4.00;;;;;;;5.96;100.00;102817.00;4992464;28;20068;-83
2021/12/19 12:05:37;;;;;;;9.98;3.35;;;;;;;5.93;99.82;102817.13;5014564;28;20037;-83
2021/12/19 12:08:08;;;;;;;9.32;3.67;;;;;;;5.97;100.00;102821.28;5010541;28;20025;-84
2021/12/19 12:10:55;;;;;;;6.57;3.35;;;;;;;5.99;100.00;102816.00;5003600;28;20038;-82
2021/12/19 12:13:24;;;;;;;10.85;4.45;;;;;;;5.98;99.86;102801.50;5006231;28;20046;-84
2021/12/19 12:15:51;;;;;;;24.80;8.05;;;;;;;6.07;99.44;102800.19;5010146;28;20046;-84
2021/12/19 12:18:37;;;;;;;7.82;3.92;;;;;;;6.05;99.44;102800.28;4996342;28;20053;-83
2021/12/19 12:21:18;;;;;;;8.13;3.65;;;;;;;5.99;99.35;102809.13;5005784;28;20036;-84
2021/12/19 12:23:52;;;;;;;4.68;2.40;;;;;;;5.85;99.71;102806.38;5013016;28;20501;-82
2021/12/19 12:26:40;;;;;;;1.73;1.25;;;;;;;5.78;99.04;102802.44;5009789;28;20109;-84
2021/12/19 12:29:06;;;;;;;3.35;1.23;;;;;;;5.76;99.34;102799.94;4991020;28;20042;-84
2021/12/19 12:31:32;;;;;;;6.15;1.40;;;;;;;5.84;99.05;102786.72;5008659;28;20038;-84